createdAt,value
2017-11-29T00:00:01.487Z,6.62
2017-11-29T00:01:01.448Z,6.66
2017-11-29T00:02:01.408Z,6.67
2017-11-29T00:03:01.369Z,6.63
2017-11-29T00:04:01.337Z,6.56
2017-11-29T00:05:01.298Z,6.54
2017-11-29T00:06:01.252Z,6.59
2017-11-29T00:07:01.208Z,6.57
2017-11-29T00:08:01.166Z,6.59
2017-11-29T00:09:01.142Z,6.59
2017-11-29T00:10:01.092Z,6.57
2017-11-29T00:11:01.050Z,6.69
2017-11-29T00:12:01.009Z,6.67
2017-11-29T00:13:00.970Z,6.70
2017-11-29T00:14:00.929Z,6.72
2017-11-29T00:15:00.885Z,6.72
2017-11-29T00:16:00.857Z,6.74
2017-11-29T00:17:00.823Z,6.74
2017-11-29T00:18:00.771Z,6.67
2017-11-29T00:19:00.727Z,6.67
2017-11-29T00:20:00.687Z,6.69
2017-11-29T00:21:00.651Z,6.66
2017-11-29T00:22:00.625Z,6.69
2017-11-29T00:23:00.646Z,6.66
2017-11-29T00:24:00.529Z,6.64
2017-11-29T00:25:00.493Z,6.67
2017-11-29T00:26:00.452Z,6.67
2017-11-29T00:27:00.406Z,6.67
2017-11-29T00:28:00.386Z,6.67
2017-11-29T00:29:00.339Z,6.67
2017-11-29T00:30:00.285Z,6.67
2017-11-29T00:31:00.246Z,6.59
2017-11-29T00:32:00.231Z,6.52
2017-11-29T00:33:00.182Z,6.60
2017-11-29T00:34:00.144Z,6.52
2017-11-29T00:35:00.089Z,6.52
2017-11-29T00:36:00.049Z,6.56
2017-11-29T00:37:00.006Z,6.59
2017-11-29T00:37:59.985Z,6.60
2017-11-29T00:38:59.943Z,6.67
2017-11-29T00:39:59.895Z,6.57
2017-11-29T00:41:00.024Z,6.60
2017-11-29T00:41:59.808Z,6.41
2017-11-29T00:42:59.769Z,6.42
2017-11-29T00:43:59.736Z,6.42
2017-11-29T00:44:59.686Z,6.45
2017-11-29T00:45:59.655Z,6.45
2017-11-29T00:46:59.603Z,6.41
2017-11-29T00:47:59.567Z,6.51
2017-11-29T00:48:59.524Z,6.57
2017-11-29T00:49:59.491Z,6.45
2017-11-29T00:50:59.456Z,6.52
2017-11-29T00:51:59.424Z,6.39
2017-11-29T00:52:59.369Z,6.42
2017-11-29T00:53:59.328Z,6.42
2017-11-29T00:54:59.281Z,6.42
2017-11-29T00:55:59.252Z,6.39
2017-11-29T00:56:59.205Z,6.33
2017-11-29T00:57:59.169Z,6.30
2017-11-29T00:58:59.125Z,6.35
2017-11-29T00:59:59.116Z,6.41
2017-11-29T01:00:59.055Z,6.36
2017-11-29T01:01:59.081Z,6.30
2017-11-29T01:02:58.969Z,6.31
2017-11-29T01:03:58.935Z,6.27
2017-11-29T01:04:58.903Z,6.28
2017-11-29T01:05:58.842Z,6.30
2017-11-29T01:06:58.803Z,6.30
2017-11-29T01:07:58.761Z,6.26
2017-11-29T01:08:58.722Z,6.33
2017-11-29T01:09:58.678Z,6.30
2017-11-29T01:10:58.638Z,6.22
2017-11-29T01:11:58.601Z,6.27
2017-11-29T01:12:58.556Z,6.28
2017-11-29T01:13:58.524Z,6.19
2017-11-29T01:14:58.476Z,6.12
2017-11-29T01:15:58.445Z,6.05
2017-11-29T01:16:58.394Z,6.12
2017-11-29T01:17:58.366Z,6.12
2017-11-29T01:18:58.318Z,6.16
2017-11-29T01:19:58.273Z,6.19
2017-11-29T01:20:58.241Z,6.22
2017-11-29T01:21:58.194Z,6.28
2017-11-29T01:22:58.157Z,6.19
2017-11-29T01:23:58.131Z,6.20
2017-11-29T01:24:58.074Z,6.16
2017-11-29T01:25:58.040Z,6.17
2017-11-29T01:26:58.004Z,6.22
2017-11-29T01:27:57.962Z,6.20
2017-11-29T01:28:57.912Z,6.20
2017-11-29T01:29:57.883Z,6.22
2017-11-29T01:30:57.834Z,6.22
2017-11-29T01:31:57.790Z,6.24
2017-11-29T01:32:57.749Z,6.20
2017-11-29T01:33:57.707Z,6.26
2017-11-29T01:34:57.677Z,6.20
2017-11-29T01:35:57.647Z,6.14
2017-11-29T01:36:57.600Z,6.19
2017-11-29T01:37:57.563Z,6.08
2017-11-29T01:38:57.515Z,6.11
2017-11-29T01:39:57.467Z,6.12
2017-11-29T01:40:57.427Z,6.09
2017-11-29T01:41:57.383Z,6.02
2017-11-29T01:42:57.344Z,5.98
2017-11-29T01:43:57.304Z,5.86
2017-11-29T01:44:57.265Z,5.80
2017-11-29T01:45:57.224Z,5.71
2017-11-29T01:46:57.184Z,5.82
2017-11-29T01:47:57.145Z,5.72
2017-11-29T01:48:57.135Z,5.71
2017-11-29T01:49:57.066Z,5.79
2017-11-29T01:50:57.027Z,5.72
2017-11-29T01:51:56.989Z,5.73
2017-11-29T01:52:56.941Z,5.71
2017-11-29T01:53:56.904Z,5.80
2017-11-29T01:54:56.864Z,5.79
2017-11-29T01:55:56.820Z,5.76
2017-11-29T01:56:56.793Z,5.83
2017-11-29T01:57:56.741Z,5.79
2017-11-29T01:58:56.709Z,5.80
2017-11-29T01:59:56.659Z,5.80
2017-11-29T02:00:56.616Z,5.73
2017-11-29T02:01:56.588Z,5.83
2017-11-29T02:02:56.538Z,5.71
2017-11-29T02:03:56.500Z,5.71
2017-11-29T02:04:56.451Z,5.72
2017-11-29T02:05:56.415Z,5.80
2017-11-29T02:06:56.374Z,5.68
2017-11-29T02:07:56.333Z,5.66
2017-11-29T02:08:56.295Z,5.69
2017-11-29T02:09:56.254Z,5.57
2017-11-29T02:10:56.212Z,5.46
2017-11-29T02:11:56.169Z,5.46
2017-11-29T02:12:56.134Z,5.39
2017-11-29T02:13:56.087Z,5.38
2017-11-29T02:14:56.063Z,5.36
2017-11-29T02:15:56.006Z,5.36
2017-11-29T02:16:55.971Z,5.26
2017-11-29T02:17:55.929Z,5.30
2017-11-29T02:18:55.888Z,5.29
2017-11-29T02:19:55.845Z,5.29
2017-11-29T02:20:55.803Z,5.32
2017-11-29T02:21:55.766Z,5.29
2017-11-29T02:22:55.728Z,5.26
2017-11-29T02:23:55.681Z,5.25
2017-11-29T02:24:55.640Z,5.30
2017-11-29T02:25:55.599Z,5.30
2017-11-29T02:26:55.562Z,5.28
2017-11-29T02:27:55.515Z,5.28
2017-11-29T02:28:55.477Z,5.28
2017-11-29T02:29:55.435Z,5.35
2017-11-29T02:30:55.393Z,5.35
2017-11-29T02:31:55.537Z,5.15
2017-11-29T02:32:55.320Z,5.20
2017-11-29T02:33:55.270Z,5.17
2017-11-29T02:34:55.232Z,5.15
2017-11-29T02:35:55.313Z,5.10
2017-11-29T02:36:55.475Z,5.15
2017-11-29T02:37:55.176Z,5.18
2017-11-29T02:38:55.062Z,5.20
2017-11-29T02:39:55.023Z,5.23
2017-11-29T02:40:55.006Z,5.20
2017-11-29T02:41:54.968Z,5.23
2017-11-29T02:42:54.900Z,5.20
2017-11-29T02:43:54.872Z,5.12
2017-11-29T02:44:54.818Z,5.17
2017-11-29T02:45:54.779Z,5.07
2017-11-29T02:46:54.738Z,5.04
2017-11-29T02:47:54.695Z,5.08
2017-11-29T02:48:54.663Z,5.07
2017-11-29T02:49:54.611Z,5.07
2017-11-29T02:50:54.570Z,5.04
2017-11-29T02:51:54.527Z,5.05
2017-11-29T02:52:54.494Z,4.84
2017-11-29T02:53:54.446Z,4.78
2017-11-29T02:54:54.415Z,4.86
2017-11-29T02:55:54.376Z,4.87
2017-11-29T02:56:54.324Z,4.90
2017-11-29T02:57:54.302Z,4.82
2017-11-29T02:58:54.240Z,4.77
2017-11-29T02:59:54.199Z,4.90
2017-11-29T03:00:54.163Z,4.82
2017-11-29T03:01:54.119Z,4.87
2017-11-29T03:02:54.079Z,4.93
2017-11-29T03:03:54.059Z,4.75
2017-11-29T03:04:53.996Z,4.86
2017-11-29T03:05:53.966Z,4.78
2017-11-29T03:06:53.925Z,4.78
2017-11-29T03:07:53.873Z,4.75
2017-11-29T03:08:53.839Z,4.82
2017-11-29T03:09:53.791Z,4.73
2017-11-29T03:10:53.749Z,4.74
2017-11-29T03:11:53.707Z,4.71
2017-11-29T03:12:53.681Z,4.78
2017-11-29T03:13:53.629Z,4.89
2017-11-29T03:14:53.595Z,4.86
2017-11-29T03:15:53.544Z,4.93
2017-11-29T03:16:53.504Z,4.87
2017-11-29T03:17:53.455Z,4.86
2017-11-29T03:18:53.413Z,4.77
2017-11-29T03:19:53.374Z,4.87
2017-11-29T03:20:53.354Z,4.74
2017-11-29T03:21:53.288Z,4.78
2017-11-29T03:22:53.281Z,4.75
2017-11-29T03:23:53.209Z,4.78
2017-11-29T03:24:53.170Z,4.82
2017-11-29T03:25:53.128Z,4.75
2017-11-29T03:26:53.100Z,4.75
2017-11-29T03:27:53.076Z,4.68
2017-11-29T03:28:53.002Z,4.78
2017-11-29T03:29:52.977Z,4.71
2017-11-29T03:30:52.932Z,4.78
2017-11-29T03:31:52.893Z,4.74
2017-11-29T03:32:52.847Z,4.74
2017-11-29T03:33:52.803Z,4.78
2017-11-29T03:34:52.778Z,4.74
2017-11-29T03:35:52.714Z,4.73
2017-11-29T03:36:52.671Z,4.78
2017-11-29T03:37:52.633Z,4.82
2017-11-29T03:38:52.582Z,4.77
2017-11-29T03:39:52.542Z,4.74
2017-11-29T03:40:52.507Z,4.71
2017-11-29T03:41:52.461Z,4.80
2017-11-29T03:42:52.420Z,4.71
2017-11-29T03:43:52.378Z,4.73
2017-11-29T03:44:52.332Z,4.70
2017-11-29T03:45:52.294Z,4.71
2017-11-29T03:46:52.252Z,4.68
2017-11-29T03:47:52.217Z,4.68
2017-11-29T03:48:52.168Z,4.59
2017-11-29T03:49:52.136Z,4.70
2017-11-29T03:50:52.093Z,4.74
2017-11-29T03:51:52.050Z,4.71
2017-11-29T03:52:52.006Z,4.63
2017-11-29T03:53:51.974Z,4.74
2017-11-29T03:54:51.927Z,4.66
2017-11-29T03:55:51.878Z,4.53
2017-11-29T03:56:51.842Z,4.59
2017-11-29T03:57:51.796Z,4.62
2017-11-29T03:58:51.754Z,4.62
2017-11-29T03:59:51.714Z,4.62
2017-11-29T04:00:51.673Z,4.62
2017-11-29T04:01:51.628Z,4.58
2017-11-29T04:02:51.587Z,4.66
2017-11-29T04:03:51.548Z,4.56
2017-11-29T04:04:51.507Z,4.41
2017-11-29T04:05:51.462Z,4.52
2017-11-29T04:06:51.427Z,4.48
2017-11-29T04:07:51.378Z,4.50
2017-11-29T04:08:51.356Z,4.55
2017-11-29T04:09:51.299Z,4.45
2017-11-29T04:10:51.260Z,4.59
2017-11-29T04:11:51.213Z,4.62
2017-11-29T04:12:51.170Z,4.56
2017-11-29T04:13:51.132Z,4.63
2017-11-29T04:14:51.089Z,4.60
2017-11-29T04:15:51.050Z,4.56
2017-11-29T04:16:51.002Z,4.55
2017-11-29T04:17:50.997Z,4.53
2017-11-29T04:18:50.920Z,4.58
2017-11-29T04:19:50.880Z,4.50
2017-11-29T04:20:50.842Z,4.49
2017-11-29T04:21:50.799Z,4.49
2017-11-29T04:22:50.762Z,4.42
2017-11-29T04:23:50.715Z,4.41
2017-11-29T04:24:50.673Z,4.41
2017-11-29T04:25:50.634Z,4.49
2017-11-29T04:26:50.587Z,4.38
2017-11-29T04:27:50.545Z,4.48
2017-11-29T04:28:50.507Z,4.45
2017-11-29T04:29:50.474Z,4.45
2017-11-29T04:30:50.419Z,4.55
2017-11-29T04:31:50.384Z,4.60
2017-11-29T04:32:50.349Z,4.56
2017-11-29T04:33:50.297Z,4.45
2017-11-29T04:34:50.254Z,4.50
2017-11-29T04:35:50.215Z,4.48
2017-11-29T04:36:50.173Z,4.37
2017-11-29T04:37:50.135Z,4.42
2017-11-29T04:38:50.087Z,4.32
2017-11-29T04:39:50.047Z,4.31
2017-11-29T04:40:50.008Z,4.44
2017-11-29T04:41:49.970Z,4.32
2017-11-29T04:42:49.920Z,4.32
2017-11-29T04:43:49.882Z,4.34
2017-11-29T04:44:49.837Z,4.30
2017-11-29T04:45:49.799Z,4.34
2017-11-29T04:46:49.752Z,4.31
2017-11-29T04:47:49.745Z,4.32
2017-11-29T04:48:49.674Z,4.19
2017-11-29T04:49:49.633Z,4.24
2017-11-29T04:50:49.588Z,4.13
2017-11-29T04:51:49.545Z,4.19
2017-11-29T04:52:49.502Z,4.30
2017-11-29T04:53:49.462Z,4.34
2017-11-29T04:54:49.418Z,4.19
2017-11-29T04:55:49.376Z,4.13
2017-11-29T04:56:49.336Z,4.08
2017-11-29T04:57:49.298Z,4.12
2017-11-29T04:58:49.252Z,4.13
2017-11-29T04:59:49.213Z,4.06
2017-11-29T05:00:49.169Z,4.08
2017-11-29T05:01:49.128Z,4.19
2017-11-29T05:02:49.085Z,4.08
2017-11-29T05:03:49.041Z,4.02
2017-11-29T05:04:49.012Z,3.99
2017-11-29T05:05:48.962Z,3.94
2017-11-29T05:06:48.918Z,4.01
2017-11-29T05:07:48.887Z,4.05
2017-11-29T05:08:48.843Z,3.98
2017-11-29T05:09:48.794Z,4.05
2017-11-29T05:10:48.750Z,4.17
2017-11-29T05:11:48.709Z,4.08
2017-11-29T05:12:48.669Z,4.08
2017-11-29T05:13:48.622Z,4.05
2017-11-29T05:14:48.584Z,4.02
2017-11-29T05:15:48.541Z,4.02
2017-11-29T05:16:48.498Z,3.98
2017-11-29T05:17:48.454Z,3.98
2017-11-29T05:18:48.415Z,3.99
2017-11-29T05:19:48.390Z,3.98
2017-11-29T05:20:48.342Z,3.98
2017-11-29T05:21:48.370Z,3.96
2017-11-29T05:22:48.247Z,3.98
2017-11-29T05:23:48.204Z,4.02
2017-11-29T05:24:48.194Z,4.02
2017-11-29T05:25:48.150Z,4.02
2017-11-29T05:26:48.083Z,3.92
2017-11-29T05:27:48.041Z,3.86
2017-11-29T05:28:48.022Z,3.78
2017-11-29T05:29:47.953Z,3.74
2017-11-29T05:30:47.947Z,3.87
2017-11-29T05:31:47.879Z,3.78
2017-11-29T05:32:47.843Z,3.73
2017-11-29T05:33:47.792Z,3.81
2017-11-29T05:34:47.745Z,3.81
2017-11-29T05:35:47.719Z,3.69
2017-11-29T05:36:47.683Z,3.68
2017-11-29T05:37:47.715Z,3.80
2017-11-29T05:38:47.592Z,3.80
2017-11-29T05:39:47.545Z,3.96
2017-11-29T05:40:47.610Z,3.88
2017-11-29T05:41:47.490Z,3.94
2017-11-29T05:42:47.457Z,4.01
2017-11-29T05:43:47.429Z,4.04
2017-11-29T05:44:47.421Z,4.01
2017-11-29T05:45:47.281Z,3.98
2017-11-29T05:46:47.243Z,3.96
2017-11-29T05:47:47.212Z,3.95
2017-11-29T05:48:47.176Z,3.95
2017-11-29T05:49:47.133Z,3.98
2017-11-29T05:50:47.082Z,3.94
2017-11-29T05:51:47.072Z,3.87
2017-11-29T05:52:47.073Z,3.87
2017-11-29T05:53:46.972Z,3.77
2017-11-29T05:54:47.003Z,3.81
2017-11-29T05:55:46.943Z,3.80
2017-11-29T05:56:46.825Z,3.74
2017-11-29T05:57:46.783Z,3.76
2017-11-29T05:58:46.744Z,3.78
2017-11-29T05:59:46.698Z,3.62
2017-11-29T06:00:46.715Z,3.62
2017-11-29T06:01:46.651Z,3.58
2017-11-29T06:02:46.604Z,3.69
2017-11-29T06:03:46.527Z,3.62
2017-11-29T06:04:46.482Z,3.62
2017-11-29T06:05:46.440Z,3.63
2017-11-29T06:06:46.396Z,3.62
2017-11-29T06:07:46.363Z,3.62
2017-11-29T06:08:46.313Z,3.62
2017-11-29T06:09:46.274Z,3.63
2017-11-29T06:10:46.232Z,3.60
2017-11-29T06:11:46.197Z,3.73
2017-11-29T06:12:46.145Z,3.70
2017-11-29T06:13:46.103Z,3.66
2017-11-29T06:14:46.060Z,3.69
2017-11-29T06:15:46.016Z,3.63
2017-11-29T06:16:45.980Z,3.69
2017-11-29T06:17:45.936Z,3.56
2017-11-29T06:18:45.889Z,3.63
2017-11-29T06:19:45.850Z,3.60
2017-11-29T06:20:45.805Z,3.50
2017-11-29T06:21:45.769Z,3.51
2017-11-29T06:22:45.725Z,3.44
2017-11-29T06:23:45.684Z,3.41
2017-11-29T06:24:45.641Z,3.40
2017-11-29T06:25:45.596Z,3.45
2017-11-29T06:26:45.557Z,3.45
2017-11-29T06:27:45.522Z,3.37
2017-11-29T06:28:45.471Z,3.40
2017-11-29T06:29:45.433Z,3.40
2017-11-29T06:30:45.390Z,3.55
2017-11-29T06:31:45.344Z,3.55
2017-11-29T06:32:45.301Z,3.55
2017-11-29T06:33:45.256Z,3.58
2017-11-29T06:34:45.217Z,3.51
2017-11-29T06:35:45.183Z,3.59
2017-11-29T06:36:45.144Z,3.53
2017-11-29T06:37:45.092Z,3.48
2017-11-29T06:38:45.053Z,3.58
2017-11-29T06:39:45.004Z,3.45
2017-11-29T06:40:44.965Z,3.55
2017-11-29T06:41:44.930Z,3.70
2017-11-29T06:42:44.888Z,3.78
2017-11-29T06:43:44.840Z,3.73
2017-11-29T06:44:44.799Z,3.73
2017-11-29T06:45:44.762Z,3.92
2017-11-29T06:46:44.710Z,3.99
2017-11-29T06:47:44.673Z,3.87
2017-11-29T06:48:44.647Z,3.98
2017-11-29T06:49:44.587Z,4.02
2017-11-29T06:50:44.544Z,4.06
2017-11-29T06:51:44.508Z,4.13
2017-11-29T06:52:44.462Z,4.17
2017-11-29T06:53:44.420Z,4.22
2017-11-29T06:54:44.374Z,4.19
2017-11-29T06:55:44.335Z,4.30
2017-11-29T06:56:44.290Z,4.31
2017-11-29T06:57:44.248Z,4.30
2017-11-29T06:58:44.207Z,4.20
2017-11-29T06:59:44.185Z,4.22
2017-11-29T07:00:44.140Z,4.13
2017-11-29T07:01:44.092Z,4.28
2017-11-29T07:02:44.050Z,4.28
2017-11-29T07:03:44.002Z,4.32
2017-11-29T07:04:43.957Z,4.44
2017-11-29T07:05:43.922Z,4.34
2017-11-29T07:06:43.872Z,4.44
2017-11-29T07:07:43.838Z,4.45
2017-11-29T07:08:43.795Z,4.48
2017-11-29T07:09:43.752Z,4.45
2017-11-29T07:10:43.712Z,4.44
2017-11-29T07:11:43.663Z,4.49
2017-11-29T07:12:43.626Z,4.60
2017-11-29T07:13:43.582Z,4.41
2017-11-29T07:14:43.551Z,4.34
2017-11-29T07:15:43.499Z,4.30
2017-11-29T07:16:43.455Z,4.30
2017-11-29T07:17:43.418Z,4.35
2017-11-29T07:18:43.378Z,4.41
2017-11-29T07:19:43.331Z,4.44
2017-11-29T07:20:43.303Z,4.53
2017-11-29T07:21:43.253Z,4.49
2017-11-29T07:22:43.217Z,4.52
2017-11-29T07:23:43.164Z,4.49
2017-11-29T07:24:43.135Z,4.53
2017-11-29T07:25:43.091Z,4.56
2017-11-29T07:26:43.038Z,4.48
2017-11-29T07:27:43.001Z,4.45
2017-11-29T07:28:42.959Z,4.56
2017-11-29T07:29:42.921Z,4.41
2017-11-29T07:30:42.881Z,4.49
2017-11-29T07:31:42.831Z,4.59
2017-11-29T07:32:42.810Z,4.55
2017-11-29T07:33:42.773Z,4.59
2017-11-29T07:34:42.819Z,4.67
2017-11-29T07:35:42.672Z,4.74
2017-11-29T07:36:42.623Z,4.71
2017-11-29T07:37:42.587Z,4.62
2017-11-29T07:38:42.548Z,4.75
2017-11-29T07:39:42.514Z,4.75
2017-11-29T07:40:42.457Z,4.82
2017-11-29T07:41:42.417Z,4.78
2017-11-29T07:42:42.373Z,4.78
2017-11-29T07:43:42.333Z,4.75
2017-11-29T07:44:42.300Z,4.80
2017-11-29T07:45:42.267Z,4.71
2017-11-29T07:46:42.327Z,4.74
2017-11-29T07:47:42.177Z,4.77
2017-11-29T07:48:42.297Z,4.73
2017-11-29T07:49:42.112Z,4.78
2017-11-29T07:50:42.059Z,4.66
2017-11-29T07:51:42.042Z,4.73
2017-11-29T07:52:41.986Z,4.67
2017-11-29T07:53:41.925Z,4.73
2017-11-29T07:54:41.917Z,4.68
2017-11-29T07:55:41.867Z,4.74
2017-11-29T07:56:41.971Z,4.84
2017-11-29T07:57:41.802Z,4.75
2017-11-29T07:58:41.733Z,4.73
2017-11-29T07:59:41.701Z,4.84
2017-11-29T08:00:41.703Z,4.87
2017-11-29T08:01:41.603Z,4.84
2017-11-29T08:02:41.561Z,4.87
2017-11-29T08:03:41.530Z,4.87
2017-11-29T08:04:41.561Z,4.77
2017-11-29T08:05:41.436Z,4.80
2017-11-29T08:06:41.390Z,4.74
2017-11-29T08:07:41.442Z,4.86
2017-11-29T08:08:41.327Z,4.80
2017-11-29T08:09:41.270Z,4.82
2017-11-29T08:10:41.225Z,4.70
2017-11-29T08:11:41.191Z,4.84
2017-11-29T08:12:41.142Z,4.75
2017-11-29T08:13:41.101Z,4.74
2017-11-29T08:14:41.058Z,4.77
2017-11-29T08:15:41.021Z,4.77
2017-11-29T08:16:40.987Z,4.77
2017-11-29T08:17:40.953Z,4.75
2017-11-29T08:18:40.890Z,4.73
2017-11-29T08:19:40.963Z,4.73
2017-11-29T08:20:40.823Z,4.73
2017-11-29T08:21:40.876Z,4.77
2017-11-29T08:22:41.418Z,4.77
2017-11-29T08:23:40.823Z,4.77
2017-11-29T08:24:40.737Z,4.75
2017-11-29T08:25:40.666Z,4.78
2017-11-29T08:26:40.648Z,4.73
2017-11-29T08:27:40.547Z,4.74
2017-11-29T08:28:40.531Z,4.82
2017-11-29T08:29:40.495Z,4.86
2017-11-29T08:30:40.451Z,4.84
2017-11-29T08:31:40.361Z,4.84
2017-11-29T08:32:40.326Z,4.93
2017-11-29T08:33:40.271Z,4.82
2017-11-29T08:34:40.227Z,4.92
2017-11-29T08:35:40.186Z,4.97
2017-11-29T08:36:40.147Z,4.94
2017-11-29T08:37:40.102Z,4.96
2017-11-29T08:38:40.063Z,4.94
2017-11-29T08:39:40.021Z,4.94
2017-11-29T08:40:39.988Z,4.96
2017-11-29T08:41:39.940Z,4.92
2017-11-29T08:42:39.899Z,4.93
2017-11-29T08:43:39.855Z,4.87
2017-11-29T08:44:39.816Z,4.94
2017-11-29T08:45:39.779Z,4.93
2017-11-29T08:46:39.737Z,4.97
2017-11-29T08:47:39.691Z,4.93
2017-11-29T08:48:39.653Z,4.89
2017-11-29T08:49:39.615Z,4.86
2017-11-29T08:50:39.570Z,4.87
2017-11-29T08:51:39.525Z,5.08
2017-11-29T08:52:39.487Z,5.00
2017-11-29T08:53:39.452Z,5.00
2017-11-29T08:54:39.403Z,5.04
2017-11-29T08:55:39.362Z,5.02
2017-11-29T08:56:39.322Z,5.07
2017-11-29T08:57:39.278Z,5.08
2017-11-29T08:58:39.240Z,5.17
2017-11-29T08:59:39.197Z,5.18
2017-11-29T09:00:39.157Z,5.15
2017-11-29T09:01:39.120Z,5.10
2017-11-29T09:02:39.078Z,5.07
2017-11-29T09:03:39.038Z,5.07
2017-11-29T09:04:38.995Z,5.05
2017-11-29T09:05:38.951Z,5.07
2017-11-29T09:06:38.909Z,5.12
2017-11-29T09:07:38.871Z,5.15
2017-11-29T09:08:38.833Z,5.17
2017-11-29T09:09:38.796Z,5.14
2017-11-29T09:10:38.747Z,5.07
2017-11-29T09:11:38.705Z,5.07
2017-11-29T09:12:38.665Z,5.04
2017-11-29T09:13:38.624Z,4.94
2017-11-29T09:14:38.582Z,4.90
2017-11-29T09:15:38.542Z,5.04
2017-11-29T09:16:38.515Z,5.05
2017-11-29T09:17:38.475Z,5.07
2017-11-29T09:18:38.420Z,5.10
2017-11-29T09:19:38.379Z,5.10
2017-11-29T09:20:38.345Z,5.15
2017-11-29T09:21:38.304Z,5.28
2017-11-29T09:22:38.260Z,5.26
2017-11-29T09:23:38.217Z,5.30
2017-11-29T09:24:38.183Z,5.38
2017-11-29T09:25:38.133Z,5.35
2017-11-29T09:26:38.096Z,5.39
2017-11-29T09:27:38.048Z,5.41
2017-11-29T09:28:38.019Z,5.35
2017-11-29T09:29:37.970Z,5.28
2017-11-29T09:30:37.926Z,5.25
2017-11-29T09:31:37.887Z,5.30
2017-11-29T09:32:37.859Z,5.28
2017-11-29T09:33:37.810Z,5.28
2017-11-29T09:34:37.768Z,5.28
2017-11-29T09:35:37.720Z,5.30
2017-11-29T09:36:37.684Z,5.30
2017-11-29T09:37:37.654Z,5.30
2017-11-29T09:38:37.600Z,5.25
2017-11-29T09:39:37.561Z,5.44
2017-11-29T09:40:37.519Z,5.43
2017-11-29T09:41:37.476Z,5.46
2017-11-29T09:42:37.436Z,5.47
2017-11-29T09:43:37.395Z,5.56
2017-11-29T09:44:37.364Z,5.57
2017-11-29T09:45:37.316Z,5.61
2017-11-29T09:46:37.274Z,5.59
2017-11-29T09:47:37.243Z,5.56
2017-11-29T09:48:37.213Z,5.54
2017-11-29T09:49:37.154Z,5.59
2017-11-29T09:50:37.117Z,5.54
2017-11-29T09:51:37.069Z,5.57
2017-11-29T09:52:37.038Z,5.61
2017-11-29T09:53:36.996Z,5.69
2017-11-29T09:54:36.952Z,5.64
2017-11-29T09:55:36.914Z,5.68
2017-11-29T09:56:36.868Z,5.71
2017-11-29T09:57:36.843Z,5.73
2017-11-29T09:58:36.783Z,5.68
2017-11-29T09:59:36.744Z,5.79
2017-11-29T10:00:36.703Z,5.76
2017-11-29T10:01:36.672Z,5.71
2017-11-29T10:02:36.622Z,5.76
2017-11-29T10:03:36.622Z,5.80
2017-11-29T10:04:36.554Z,5.84
2017-11-29T10:05:36.501Z,5.79
2017-11-29T10:06:36.460Z,5.83
2017-11-29T10:07:36.419Z,5.84
2017-11-29T10:08:36.381Z,5.90
2017-11-29T10:09:36.351Z,5.87
2017-11-29T10:10:36.309Z,5.83
2017-11-29T10:11:36.266Z,5.86
2017-11-29T10:12:36.219Z,5.83
2017-11-29T10:13:36.191Z,5.93
2017-11-29T10:14:36.144Z,5.97
2017-11-29T10:15:36.097Z,5.97
2017-11-29T10:16:36.060Z,5.91
2017-11-29T10:17:36.017Z,5.93
2017-11-29T10:18:35.977Z,5.99
2017-11-29T10:19:35.966Z,5.94
2017-11-29T10:20:35.895Z,5.99
2017-11-29T10:21:35.889Z,5.97
2017-11-29T10:22:35.837Z,6.01
2017-11-29T10:23:35.778Z,5.98
2017-11-29T10:24:35.743Z,6.07
2017-11-29T10:25:35.844Z,6.05
2017-11-29T10:26:35.650Z,6.01
2017-11-29T10:27:35.647Z,6.04
2017-11-29T10:28:35.578Z,6.04
2017-11-29T10:29:35.532Z,6.09
2017-11-29T10:30:35.512Z,6.07
2017-11-29T10:31:35.462Z,6.12
2017-11-29T10:32:35.418Z,6.11
2017-11-29T10:33:35.509Z,6.17
2017-11-29T10:34:35.340Z,6.14
2017-11-29T10:35:35.296Z,6.22
2017-11-29T10:36:35.271Z,6.27
2017-11-29T10:37:35.213Z,6.22
2017-11-29T10:38:35.182Z,6.30
2017-11-29T10:39:35.174Z,6.33
2017-11-29T10:40:35.092Z,6.31
2017-11-29T10:41:35.066Z,6.27
2017-11-29T10:42:35.018Z,6.31
2017-11-29T10:43:34.978Z,6.33
2017-11-29T10:44:34.935Z,6.33
2017-11-29T10:45:34.886Z,6.30
2017-11-29T10:46:34.853Z,6.31
2017-11-29T10:47:34.812Z,6.36
2017-11-29T10:48:34.775Z,6.30
2017-11-29T10:49:34.723Z,6.31
2017-11-29T10:50:34.703Z,6.35
2017-11-29T10:51:34.737Z,6.31
2017-11-29T10:52:34.622Z,6.30
2017-11-29T10:53:34.584Z,6.38
2017-11-29T10:54:34.540Z,6.33
2017-11-29T10:55:34.481Z,6.36
2017-11-29T10:56:34.451Z,6.36
2017-11-29T10:57:34.417Z,6.42
2017-11-29T10:58:34.392Z,6.41
2017-11-29T10:59:34.336Z,6.35
2017-11-29T11:00:34.311Z,6.44
2017-11-29T11:01:34.303Z,6.51
2017-11-29T11:02:34.204Z,6.44
2017-11-29T11:03:34.160Z,6.44
2017-11-29T11:04:34.127Z,6.41
2017-11-29T11:05:34.088Z,6.38
2017-11-29T11:06:34.041Z,6.42
2017-11-29T11:07:34.031Z,6.52
2017-11-29T11:08:33.961Z,6.42
2017-11-29T11:09:33.924Z,6.63
2017-11-29T11:10:33.881Z,6.59
2017-11-29T11:11:33.851Z,6.52
2017-11-29T11:12:33.799Z,6.67
2017-11-29T11:13:33.762Z,6.66
2017-11-29T11:14:33.720Z,6.57
2017-11-29T11:15:33.716Z,6.60
2017-11-29T11:16:33.655Z,6.51
2017-11-29T11:17:33.609Z,6.66
2017-11-29T11:18:33.560Z,6.66
2017-11-29T11:19:33.532Z,6.62
2017-11-29T11:20:33.479Z,6.64
2017-11-29T11:21:33.439Z,6.62
2017-11-29T11:22:33.404Z,6.63
2017-11-29T11:23:33.360Z,6.67
2017-11-29T11:24:33.320Z,6.67
2017-11-29T11:25:33.281Z,6.66
2017-11-29T11:26:33.274Z,6.62
2017-11-29T11:27:33.212Z,6.63
2017-11-29T11:28:33.165Z,6.62
2017-11-29T11:29:33.123Z,6.64
2017-11-29T11:30:33.082Z,6.69
2017-11-29T11:31:33.040Z,6.64
2017-11-29T11:32:33.002Z,6.66
2017-11-29T11:33:33.014Z,6.66
2017-11-29T11:34:32.925Z,6.67
2017-11-29T11:35:32.881Z,6.74
2017-11-29T11:36:32.846Z,6.69
2017-11-29T11:37:32.805Z,6.69
2017-11-29T11:38:32.769Z,6.69
2017-11-29T11:39:32.725Z,6.67
2017-11-29T11:40:32.692Z,6.69
2017-11-29T11:41:32.653Z,6.67
2017-11-29T11:42:32.603Z,6.69
2017-11-29T11:43:32.564Z,6.66
2017-11-29T11:44:32.524Z,6.74
2017-11-29T11:45:32.492Z,6.77
2017-11-29T11:46:32.452Z,6.74
2017-11-29T11:47:32.406Z,6.77
2017-11-29T11:48:32.370Z,6.82
2017-11-29T11:49:32.342Z,6.79
2017-11-29T11:50:32.287Z,6.78
2017-11-29T11:51:32.248Z,6.87
2017-11-29T11:52:32.210Z,6.81
2017-11-29T11:53:32.172Z,6.89
2017-11-29T11:54:32.126Z,6.84
2017-11-29T11:55:32.085Z,6.84
2017-11-29T11:56:32.045Z,6.85
2017-11-29T11:57:32.006Z,6.82
2017-11-29T11:58:31.967Z,6.92
2017-11-29T11:59:31.925Z,6.85
2017-11-29T12:00:31.893Z,6.82
2017-11-29T12:01:31.852Z,6.84
2017-11-29T12:02:31.807Z,6.87
2017-11-29T12:03:31.767Z,6.88
2017-11-29T12:04:31.729Z,6.88
2017-11-29T12:05:31.689Z,6.88
2017-11-29T12:06:31.649Z,6.89
2017-11-29T12:07:31.610Z,6.88
2017-11-29T12:08:31.603Z,6.96
2017-11-29T12:09:31.530Z,7.06
2017-11-29T12:10:31.489Z,7.07
2017-11-29T12:11:31.460Z,7.11
2017-11-29T12:12:31.429Z,7.18
2017-11-29T12:13:31.380Z,7.14
2017-11-29T12:14:31.333Z,7.21
2017-11-29T12:15:31.293Z,7.23
2017-11-29T12:16:31.267Z,7.20
2017-11-29T12:17:31.212Z,7.13
2017-11-29T12:18:31.173Z,6.99
2017-11-29T12:19:31.134Z,7.10
2017-11-29T12:20:31.096Z,7.17
2017-11-29T12:21:31.054Z,7.18
2017-11-29T12:22:31.015Z,7.18
2017-11-29T12:23:30.973Z,7.21
2017-11-29T12:24:30.934Z,7.20
2017-11-29T12:25:30.895Z,7.20
2017-11-29T12:26:30.856Z,7.24
2017-11-29T12:27:30.825Z,7.23
2017-11-29T12:28:30.784Z,7.18
2017-11-29T12:29:30.746Z,7.23
2017-11-29T12:30:30.701Z,7.23
2017-11-29T12:31:30.666Z,7.18
2017-11-29T12:32:30.624Z,7.05
2017-11-29T12:33:30.586Z,7.06
2017-11-29T12:34:30.539Z,7.13
2017-11-29T12:35:30.503Z,7.03
2017-11-29T12:36:30.462Z,7.14
2017-11-29T12:37:30.431Z,7.14
2017-11-29T12:38:30.387Z,7.05
2017-11-29T12:39:30.345Z,7.17
2017-11-29T12:40:30.313Z,7.21
2017-11-29T12:41:30.268Z,7.14
2017-11-29T12:42:30.231Z,7.20
2017-11-29T12:43:30.184Z,7.15
2017-11-29T12:44:30.145Z,7.14
2017-11-29T12:45:30.108Z,7.21
2017-11-29T12:46:30.079Z,7.15
2017-11-29T12:47:30.026Z,7.10
2017-11-29T12:48:30.026Z,7.07
2017-11-29T12:49:29.950Z,7.07
2017-11-29T12:50:29.909Z,7.05
2017-11-29T12:51:29.878Z,7.13
2017-11-29T12:52:29.831Z,7.07
2017-11-29T12:53:29.790Z,7.11
2017-11-29T12:54:29.758Z,7.07
2017-11-29T12:55:29.717Z,7.07
2017-11-29T12:56:29.679Z,7.07
2017-11-29T12:57:29.636Z,7.11
2017-11-29T12:58:29.601Z,7.05
2017-11-29T12:59:29.556Z,7.03
2017-11-29T13:00:29.514Z,7.10
2017-11-29T13:01:29.486Z,7.06
2017-11-29T13:02:29.437Z,7.06
2017-11-29T13:03:29.397Z,7.10
2017-11-29T13:04:29.401Z,7.07
2017-11-29T13:05:29.367Z,7.06
2017-11-29T13:06:29.287Z,7.00
2017-11-29T13:07:29.334Z,7.02
2017-11-29T13:08:29.281Z,7.02
2017-11-29T13:09:29.197Z,7.00
2017-11-29T13:10:29.121Z,7.00
2017-11-29T13:11:29.115Z,6.99
2017-11-29T13:12:29.044Z,6.99
2017-11-29T13:13:29.053Z,6.96
2017-11-29T13:14:28.976Z,6.97
2017-11-29T13:15:28.923Z,6.95
2017-11-29T13:16:28.932Z,6.95
2017-11-29T13:17:28.920Z,6.87